Time;durP1;ratioP1;P1;durP2;ratioP2;P2;SDS_P1;SDS_P2;PMS_P1;PMS_P2;Temp;Humidity;BMP_temperature;BMP_pressure;BME280_temperature;BME280_humidity;BME280_pressure;Samples;Min_cycle;Max_cycle;Signal;HPM_P1;HPM_P2
2022/03/29 00:02:20;;;;;;;19.35;11.50;;;;;;;8.32;59.02;96175.00;5047488;28;20065;-64
2022/03/29 00:04:49;;;;;;;20.30;11.65;;;;;;;8.32;58.98;96171.53;5045760;28;20060;-65
2022/03/29 00:07:17;;;;;;;18.35;11.52;;;;;;;8.23;60.18;96167.97;5038859;28;20057;-65
2022/03/29 00:09:45;;;;;;;18.30;11.15;;;;;;;8.14;60.49;96168.78;5047093;28;21162;-65
2022/03/29 00:12:14;;;;;;;19.23;11.48;;;;;;;8.23;60.99;96161.88;5043879;28;20073;-65
2022/03/29 00:14:42;;;;;;;24.20;11.75;;;;;;;8.15;61.28;96154.66;5048211;28;20068;-65
2022/03/29 00:17:10;;;;;;;20.17;11.13;;;;;;;8.04;62.65;96153.00;5045752;28;20080;-65
2022/03/29 00:19:40;;;;;;;19.02;11.32;;;;;;;8.07;63.15;96154.53;5045903;28;20083;-65
2022/03/29 00:22:08;;;;;;;22.58;11.45;;;;;;;7.97;63.66;96148.44;5047470;28;21001;-65
2022/03/29 00:24:36;;;;;;;19.73;12.02;;;;;;;7.89;65.51;96153.56;5045663;28;20111;-64
2022/03/29 00:27:05;;;;;;;21.35;11.98;;;;;;;7.92;65.55;96150.66;5047286;28;20080;-64
2022/03/29 00:29:34;;;;;;;16.95;10.93;;;;;;;7.83;65.58;96152.28;5046079;28;20355;-64
2022/03/29 00:32:02;;;;;;;19.40;12.10;;;;;;;7.82;66.01;96142.75;5047322;28;20068;-64
2022/03/29 00:34:31;;;;;;;21.77;12.30;;;;;;;7.68;68.62;96148.41;5044697;28;20068;-64
2022/03/29 00:37:00;;;;;;;20.52;12.02;;;;;;;7.62;70.83;96139.25;5047076;28;20083;-64
2022/03/29 00:39:28;;;;;;;21.00;11.77;;;;;;;7.50;73.67;96142.94;5046612;28;20060;-64
2022/03/29 00:41:57;;;;;;;20.65;11.60;;;;;;;7.56;74.10;96145.84;5045384;28;20095;-64
2022/03/29 00:44:30;;;;;;;21.83;11.02;;;;;;;7.55;73.43;96135.50;5046978;28;20561;-65
2022/03/29 00:46:59;;;;;;;18.83;11.75;;;;;;;7.50;74.67;96132.44;5045686;28;20064;-64
2022/03/29 00:49:41;;;;;;;20.30;11.10;;;;;;;7.41;77.01;96133.25;4982691;28;20080;-63
2022/03/29 00:52:11;;;;;;;18.65;11.65;;;;;;;7.43;77.98;96128.69;4984357;28;20073;-64
2022/03/29 00:54:41;;;;;;;21.83;13.05;;;;;;;7.40;79.58;96124.56;4984642;28;20073;-64
2022/03/29 00:57:11;;;;;;;22.10;12.20;;;;;;;7.24;80.47;96116.34;4983615;28;20093;-65
2022/03/29 00:59:41;;;;;;;22.38;11.77;;;;;;;7.27;79.13;96116.91;4985036;28;20077;-64
2022/03/29 01:02:10;;;;;;;20.08;11.77;;;;;;;7.23;79.83;96119.94;4984170;28;20074;-64
2022/03/29 01:04:38;;;;;;;19.75;11.70;;;;;;;7.32;80.42;96117.34;4984369;28;20066;-64
2022/03/29 01:07:07;;;;;;;20.88;12.00;;;;;;;7.26;79.39;96110.03;4967666;28;20517;-64
2022/03/29 01:09:37;;;;;;;18.45;11.60;;;;;;;7.14;80.74;96111.06;4967868;28;20065;-64
2022/03/29 01:12:05;;;;;;;18.95;11.13;;;;;;;7.22;81.40;96108.59;4968269;28;20070;-63
2022/03/29 01:14:34;;;;;;;20.27;11.65;;;;;;;7.13;82.26;96105.00;4970897;28;20081;-64
2022/03/29 01:19:50;;;;;;;17.85;10.82;;;;;;;7.00;83.07;96109.63;4987410;28;20058;-64
2022/03/29 01:22:20;;;;;;;20.50;12.10;;;;;;;6.90;84.48;96100.88;5041643;28;20068;-62
2022/03/29 01:24:50;;;;;;;20.80;11.70;;;;;;;6.93;84.01;96098.00;5041709;28;20451;-64
2022/03/29 01:27:20;;;;;;;19.20;11.15;;;;;;;6.96;85.53;96094.31;5044216;28;20061;-63
2022/03/29 01:29:50;;;;;;;17.02;11.50;;;;;;;7.04;86.22;96089.22;5042944;28;20057;-64
2022/03/29 01:32:18;;;;;;;18.63;11.20;;;;;;;7.05;85.91;96083.00;5045915;28;20057;-63
2022/03/29 01:34:47;;;;;;;22.55;11.43;;;;;;;7.10;84.88;96084.28;5044090;28;20064;-65
2022/03/29 01:37:16;;;;;;;18.00;11.75;;;;;;;7.08;84.21;96082.75;5046269;28;20072;-63
2022/03/29 01:39:46;;;;;;;21.83;11.90;;;;;;;7.16;83.94;96076.84;5044801;28;20545;-63
2022/03/29 01:42:15;;;;;;;17.88;11.73;;;;;;;7.22;83.80;96074.50;5045056;28;20139;-64
2022/03/29 01:44:44;;;;;;;22.42;11.77;;;;;;;7.24;83.84;96066.53;5046229;28;20064;-64
2022/03/29 01:47:12;;;;;;;20.17;11.80;;;;;;;7.31;84.57;96070.28;5044454;28;20064;-64
2022/03/29 01:49:40;;;;;;;19.85;12.73;;;;;;;7.34;85.28;96062.97;5042401;28;20455;-63
2022/03/29 01:52:09;;;;;;;18.83;11.48;;;;;;;7.33;85.61;96060.50;5044002;28;20052;-63
2022/03/29 01:54:37;;;;;;;18.10;11.30;;;;;;;7.35;85.15;96062.00;5045007;28;20053;-64
2022/03/29 01:57:07;;;;;;;19.33;11.65;;;;;;;7.40;85.16;96052.88;5044874;28;20526;-64
2022/03/29 02:02:17;;;;;;;20.60;10.90;;;;;;;7.42;86.11;96041.31;5043176;28;20537;-63
2022/03/29 02:04:46;;;;;;;22.55;11.75;;;;;;;7.47;86.98;96033.03;5043194;28;20076;-63
2022/03/29 02:07:16;;;;;;;23.00;11.95;;;;;;;7.49;85.80;96037.16;5045194;28;20065;-64
2022/03/29 02:09:45;;;;;;;27.48;11.48;;;;;;;7.64;85.00;96029.75;5043417;28;20163;-64
2022/03/29 02:12:14;;;;;;;21.83;11.75;;;;;;;7.62;85.07;96029.03;5043772;28;20060;-64
2022/03/29 02:14:43;;;;;;;22.58;12.02;;;;;;;7.62;86.52;96036.91;5041534;28;20156;-64
2022/03/29 02:17:11;;;;;;;24.42;12.00;;;;;;;7.56;88.31;96033.03;5043362;28;20109;-64
2022/03/29 02:19:39;;;;;;;18.95;11.60;;;;;;;7.49;88.82;96023.22;5044283;28;20427;-64
2022/03/29 02:22:08;;;;;;;23.83;12.65;;;;;;;7.53;90.70;96027.22;5042652;28;20064;-64
2022/03/29 02:24:36;;;;;;;21.10;11.35;;;;;;;7.50;91.00;96023.09;5042253;28;20072;-63
2022/03/29 02:27:04;;;;;;;21.55;12.05;;;;;;;7.45;92.19;96022.66;5042971;28;20325;-64
2022/03/29 02:29:34;;;;;;;18.02;11.10;;;;;;;7.40;94.00;96021.41;5040802;28;20828;-64
2022/03/29 02:32:03;;;;;;;18.05;12.30;;;;;;;7.31;96.19;96018.66;5044896;28;20060;-64
2022/03/29 02:34:31;;;;;;;20.73;12.15;;;;;;;7.20;99.02;96010.91;5045949;28;20531;-63
2022/03/29 02:36:59;;;;;;;17.80;11.65;;;;;;;7.21;98.77;96009.09;5047783;28;20100;-63
2022/03/29 02:39:27;;;;;;;17.73;11.65;;;;;;;7.12;100.00;96014.19;5047078;28;20075;-63
2022/03/29 02:41:56;;;;;;;21.90;12.00;;;;;;;6.95;100.00;96014.00;5045093;28;20073;-62
2022/03/29 02:44:24;;;;;;;17.13;11.50;;;;;;;6.89;100.00;96004.88;5047257;28;20163;-64
2022/03/29 02:46:54;;;;;;;19.30;12.38;;;;;;;6.79;100.00;96001.41;5043906;28;20685;-63
2022/03/29 02:49:22;;;;;;;19.92;12.30;;;;;;;6.75;100.00;95997.41;5044500;28;20067;-64
2022/03/29 02:51:50;;;;;;;21.52;11.95;;;;;;;6.81;100.00;96000.31;5043389;28;20063;-63
2022/03/29 02:54:19;;;;;;;22.42;12.73;;;;;;;6.91;100.00;95992.47;5045842;28;20711;-64
2022/03/29 02:56:48;;;;;;;22.65;11.43;;;;;;;6.83;100.00;95998.38;5043623;28;20080;-64
2022/03/29 02:59:17;;;;;;;18.15;11.35;;;;;;;6.82;100.00;95993.28;5045245;28;20067;-63
2022/03/29 03:01:45;;;;;;;16.63;11.13;;;;;;;6.68;100.00;95999.72;5044783;28;20554;-61
2022/03/29 03:04:15;;;;;;;17.95;11.52;;;;;;;6.68;100.00;95991.03;5045158;28;21322;-63
2022/03/29 03:06:44;;;;;;;21.45;11.07;;;;;;;6.54;100.00;95993.03;5043136;28;20072;-64
2022/03/29 03:09:12;;;;;;;19.42;12.05;;;;;;;6.66;100.00;95989.34;5045570;28;20087;-63
2022/03/29 03:11:40;;;;;;;19.95;12.13;;;;;;;6.81;100.00;95983.72;5042020;28;20073;-63
2022/03/29 03:14:08;;;;;;;19.75;11.98;;;;;;;6.76;100.00;95986.75;5044103;28;20061;-63
2022/03/29 03:16:37;;;;;;;20.63;12.73;;;;;;;6.80;100.00;95990.78;5042996;28;20534;-63
2022/03/29 03:19:26;;;;;;;20.83;12.40;;;;;;;6.74;100.00;95985.22;5043968;28;20076;-61
2022/03/29 03:21:54;;;;;;;21.15;12.02;;;;;;;6.88;100.00;95980.47;5045445;28;20060;-61
2022/03/29 03:24:23;;;;;;;27.80;12.75;;;;;;;6.87;100.00;95983.22;5044192;28;20075;-62
2022/03/29 03:26:51;;;;;;;27.15;13.98;;;;;;;6.88;100.00;95977.84;5040732;28;20080;-64
2022/03/29 03:29:19;;;;;;;23.98;12.75;;;;;;;6.85;100.00;95980.75;5044529;28;20091;-64
2022/03/29 03:31:47;;;;;;;23.92;12.55;;;;;;;6.83;100.00;95977.41;5040303;28;20064;-64
2022/03/29 03:34:16;;;;;;;30.50;13.05;;;;;;;6.80;100.00;95969.81;5058639;28;20053;-64
2022/03/29 03:36:46;;;;;;;25.50;12.95;;;;;;;6.86;100.00;95981.56;5044096;28;20064;-63
2022/03/29 03:39:14;;;;;;;20.52;13.55;;;;;;;6.65;100.00;95974.59;5046616;28;20498;-63
2022/03/29 03:41:43;;;;;;;22.83;12.57;;;;;;;6.79;100.00;95970.78;5044424;28;20076;-63
2022/03/29 03:44:11;;;;;;;21.88;12.70;;;;;;;6.80;100.00;95967.19;5047316;28;20417;-62
2022/03/29 03:46:40;;;;;;;22.05;12.65;;;;;;;6.88;100.00;95959.50;5048082;28;20448;-63
2022/03/29 03:49:08;;;;;;;24.42;12.95;;;;;;;6.88;100.00;95958.66;5045606;28;20064;-63
2022/03/29 03:51:36;;;;;;;24.27;12.40;;;;;;;6.89;100.00;95952.47;5045872;28;20083;-65
2022/03/29 03:54:06;;;;;;;25.90;13.10;;;;;;;6.85;100.00;95956.31;5046664;28;20081;-63
2022/03/29 03:56:35;;;;;;;21.27;12.20;;;;;;;6.71;100.00;95952.28;5048046;28;20128;-64
2022/03/29 03:59:03;;;;;;;48.75;14.27;;;;;;;6.59;100.00;95940.25;5045667;28;20104;-64
2022/03/29 04:01:31;;;;;;;24.05;13.38;;;;;;;6.62;100.00;95943.41;5046836;28;20546;-63
2022/03/29 04:04:00;;;;;;;26.55;12.60;;;;;;;6.68;100.00;95946.47;5046317;28;20064;-64
2022/03/29 04:06:28;;;;;;;22.83;12.68;;;;;;;6.40;100.00;95947.06;5046449;28;20064;-63
2022/03/29 04:08:57;;;;;;;20.40;12.65;;;;;;;6.54;100.00;95945.06;5046166;28;20084;-62
2022/03/29 04:11:27;;;;;;;24.65;12.82;;;;;;;6.40;100.00;95947.06;5045780;28;20081;-62
2022/03/29 04:13:56;;;;;;;22.33;13.00;;;;;;;6.13;100.00;95945.00;5046250;28;20817;-63
2022/03/29 04:16:24;;;;;;;21.45;12.73;;;;;;;6.29;100.00;95936.66;5049092;28;20061;-64
2022/03/29 04:18:53;;;;;;;26.00;12.73;;;;;;;6.37;100.00;95930.78;5046255;28;20519;-62
2022/03/29 04:21:21;;;;;;;30.83;13.43;;;;;;;6.37;100.00;95930.78;5045609;28;20060;-63
2022/03/29 04:23:49;;;;;;;23.30;13.27;;;;;;;6.31;100.00;95928.69;5046148;28;20075;-62
2022/03/29 04:26:18;;;;;;;23.83;12.90;;;;;;;6.33;100.00;95929.38;5046744;28;20079;-62
2022/03/29 04:28:47;;;;;;;27.58;12.77;;;;;;;6.17;100.00;95922.84;5047103;28;20603;-64
2022/03/29 04:31:16;;;;;;;27.43;13.63;;;;;;;6.16;100.00;95925.59;5046394;28;20069;-65
2022/03/29 04:33:45;;;;;;;28.23;13.07;;;;;;;6.28;100.00;95921.09;5046504;28;20072;-62
2022/03/29 04:36:13;;;;;;;22.38;13.23;;;;;;;5.80;100.00;95919.03;5045625;28;20077;-63
2022/03/29 04:38:42;;;;;;;20.60;13.45;;;;;;;6.02;100.00;95918.06;5044188;28;20102;-64
2022/03/29 04:41:10;;;;;;;24.70;12.40;;;;;;;6.20;100.00;95910.47;5061131;28;20069;-63
2022/03/29 04:43:39;;;;;;;30.90;12.80;;;;;;;6.11;100.00;95906.81;5061068;28;20130;-63
2022/03/29 04:46:08;;;;;;;29.13;13.32;;;;;;;6.02;100.00;95903.22;5046506;28;20072;-62
2022/03/29 04:48:37;;;;;;;23.30;13.00;;;;;;;5.94;100.00;95893.38;5046462;28;20056;-62
2022/03/29 04:51:06;;;;;;;26.63;13.25;;;;;;;6.14;100.00;95896.09;5044861;28;20103;-65
2022/03/29 04:53:34;;;;;;;26.70;13.52;;;;;;;6.26;100.00;95897.66;5045031;28;20068;-63
2022/03/29 04:56:03;;;;;;;24.15;12.95;;;;;;;6.30;100.00;95893.00;5046698;28;20057;-62
2022/03/29 04:58:31;;;;;;;24.25;13.05;;;;;;;6.33;100.00;95895.34;5046029;28;20064;-63
2022/03/29 05:00:59;;;;;;;24.65;13.07;;;;;;;6.45;100.00;95893.47;5045247;28;20060;-62
2022/03/29 05:03:29;;;;;;;26.45;14.30;;;;;;;6.35;100.00;95903.91;5045645;28;20061;-64
2022/03/29 05:05:58;;;;;;;30.50;14.37;;;;;;;5.71;100.00;95902.31;5045272;28;20087;-63
2022/03/29 05:08:26;;;;;;;26.73;13.80;;;;;;;5.81;100.00;95900.56;5046006;28;20084;-63
2022/03/29 05:10:54;;;;;;;22.95;13.90;;;;;;;5.88;100.00;95898.28;5043831;28;20060;-63
2022/03/29 05:13:23;;;;;;;22.35;13.10;;;;;;;6.00;100.00;95904.31;5045724;28;20060;-63
2022/03/29 05:15:51;;;;;;;25.23;13.27;;;;;;;6.17;100.00;95893.22;5045140;28;20060;-64
2022/03/29 05:18:19;;;;;;;20.98;12.70;;;;;;;6.36;100.00;95893.28;5045069;28;20060;-62
2022/03/29 05:20:49;;;;;;;23.92;13.18;;;;;;;6.17;100.00;95893.22;5045310;28;20080;-64
2022/03/29 05:23:17;;;;;;;24.30;13.27;;;;;;;6.41;100.00;95891.09;5045214;28;20057;-63
2022/03/29 05:25:46;;;;;;;22.95;12.57;;;;;;;6.62;100.00;95891.03;5046056;28;20065;-64
2022/03/29 05:28:14;;;;;;;26.30;14.43;;;;;;;6.71;100.00;95897.25;5046365;28;20446;-63
2022/03/29 05:30:42;;;;;;;22.17;13.07;;;;;;;6.82;100.00;95898.94;5044326;28;20083;-63
2022/03/29 05:33:16;;;;;;;25.25;13.38;;;;;;;6.96;100.00;95889.84;5045259;28;20144;-63
2022/03/29 05:35:45;;;;;;;24.67;14.43;;;;;;;7.13;100.00;95876.88;5041372;28;20099;-63
2022/03/29 05:38:15;;;;;;;31.38;14.18;;;;;;;6.80;100.00;95882.50;5046114;28;20076;-62
2022/03/29 05:40:43;;;;;;;29.05;14.57;;;;;;;7.19;100.00;95874.66;5040687;28;20068;-63
2022/03/29 05:43:12;;;;;;;25.90;14.43;;;;;;;7.31;100.00;95881.44;5043231;28;20068;-63
2022/03/29 05:45:41;;;;;;;31.88;13.77;;;;;;;7.39;100.00;95881.56;5045396;28;20336;-63
2022/03/29 05:50:55;;;;;;;22.67;12.93;;;;;;;7.55;100.00;95868.72;5041685;28;20091;-63
2022/03/29 05:53:25;;;;;;;21.17;12.85;;;;;;;7.53;100.00;95872.44;5045488;28;20478;-63
2022/03/29 05:55:53;;;;;;;20.58;12.63;;;;;;;7.83;100.00;95871.41;5044543;28;20072;-63
2022/03/29 05:58:22;;;;;;;23.52;13.30;;;;;;;7.58;100.00;95872.84;5043676;28;20057;-64
2022/03/29 06:00:50;;;;;;;24.17;12.70;;;;;;;7.45;100.00;95878.38;5045367;28;20065;-64
2022/03/29 06:03:18;;;;;;;18.33;12.23;;;;;;;7.82;100.00;95869.78;5039932;28;20079;-64
2022/03/29 06:05:47;;;;;;;22.65;12.25;;;;;;;7.65;100.00;95881.81;5046827;28;20087;-62
2022/03/29 06:08:15;;;;;;;23.60;12.30;;;;;;;8.07;100.00;95877.00;5047513;28;20559;-64
2022/03/29 06:10:45;;;;;;;27.42;12.35;;;;;;;8.18;100.00;95877.81;5049616;28;20072;-62
2022/03/29 06:13:14;;;;;;;21.73;12.98;;;;;;;8.26;100.00;95876.13;5047910;28;20617;-63
2022/03/29 06:15:42;;;;;;;25.25;13.63;;;;;;;8.40;100.00;95882.72;5049535;28;20064;-64
2022/03/29 06:18:10;;;;;;;21.58;12.70;;;;;;;8.22;100.00;95885.25;5049092;28;20093;-64
2022/03/29 06:20:39;;;;;;;29.90;13.35;;;;;;;8.29;100.00;95882.88;5049539;28;20081;-63
2022/03/29 06:23:07;;;;;;;21.45;13.57;;;;;;;8.80;100.00;95873.66;5048560;28;20065;-62
2022/03/29 06:25:36;;;;;;;24.10;13.85;;;;;;;8.89;100.00;95879.84;5048761;28;20068;-64
2022/03/29 06:28:06;;;;;;;26.58;13.93;;;;;;;9.03;100.00;95872.25;5048505;28;21646;-63
2022/03/29 06:30:34;;;;;;;24.75;12.57;;;;;;;9.22;100.00;95868.66;5048362;28;20444;-62
2022/03/29 06:33:02;;;;;;;26.27;13.00;;;;;;;9.33;100.00;95862.34;5047373;28;20084;-64
2022/03/29 06:35:32;;;;;;;22.52;13.20;;;;;;;9.57;97.58;95871.41;5048678;28;20048;-64
2022/03/29 06:38:01;;;;;;;20.27;12.68;;;;;;;9.50;100.00;95864.13;5046830;28;20723;-62
2022/03/29 06:40:30;;;;;;;26.02;13.70;;;;;;;9.86;97.71;95871.13;5047494;28;20068;-63
2022/03/29 06:42:58;;;;;;;28.23;13.57;;;;;;;9.82;100.00;95870.59;5047053;28;20037;-64
2022/03/29 06:45:28;;;;;;;33.35;13.15;;;;;;;10.15;95.70;95861.09;5048097;28;20068;-63
2022/03/29 06:47:58;;;;;;;27.65;13.75;;;;;;;9.89;97.63;95866.38;5045756;28;20080;-62
2022/03/29 06:50:26;;;;;;;24.98;13.90;;;;;;;10.07;98.33;95865.47;5048923;28;20103;-64
2022/03/29 06:52:56;;;;;;;23.35;13.23;;;;;;;10.80;93.01;95865.81;5044614;28;20459;-65
2022/03/29 06:55:27;;;;;;;27.20;13.38;;;;;;;11.12;87.81;95856.34;5046261;28;20037;-62
2022/03/29 06:57:55;;;;;;;26.67;12.63;;;;;;;11.19;90.15;95857.34;5048458;28;20068;-64
2022/03/29 07:00:25;;;;;;;22.60;12.82;;;;;;;10.91;95.49;95859.44;5047792;28;20531;-63
2022/03/29 07:02:55;;;;;;;30.30;13.48;;;;;;;11.43;95.42;95853.91;5048092;28;20084;-62
2022/03/29 07:05:23;;;;;;;21.52;13.60;;;;;;;11.86;85.87;95851.91;5046532;28;20529;-63
2022/03/29 07:07:52;;;;;;;21.45;13.00;;;;;;;12.00;83.66;95858.31;5047884;28;20045;-64
2022/03/29 07:13:06;;;;;;;27.30;13.23;;;;;;;11.80;89.88;95855.19;5045306;28;20065;-65
2022/03/29 07:15:35;;;;;;;23.17;13.32;;;;;;;11.77;86.85;95858.19;5048478;28;20995;-62
2022/03/29 07:18:05;;;;;;;24.10;13.48;;;;;;;11.95;81.81;95855.38;5045004;28;20083;-63
2022/03/29 07:20:34;;;;;;;;;;;;;;;12.13;82.56;95849.88;5048234;28;20088;-63
2022/03/29 07:23:02;;;;;;;26.75;12.80;;;;;;;12.43;75.45;95850.97;5044494;28;19959;-65
2022/03/29 07:25:32;;;;;;;19.58;12.95;;;;;;;12.83;74.80;95852.56;5047522;28;20069;-63
2022/03/29 07:28:00;;;;;;;26.77;13.05;;;;;;;13.24;67.47;95847.06;5047138;28;20065;-63
2022/03/29 07:30:30;;;;;;;24.75;12.55;;;;;;;13.42;67.03;95839.66;5045784;28;20064;-62
2022/03/29 07:32:59;;;;;;;19.65;12.57;;;;;;;13.76;64.05;95835.72;5046231;28;20077;-65
2022/03/29 07:35:29;;;;;;;19.05;12.45;;;;;;;14.32;59.88;95835.34;5047813;28;20077;-63
2022/03/29 07:37:58;;;;;;;40.38;25.90;;;;;;;14.73;56.45;95835.72;5046627;28;20463;-63
2022/03/29 07:40:29;;;;;;;24.90;13.57;;;;;;;14.34;59.56;95834.13;5046975;28;20065;-64
2022/03/29 07:42:57;;;;;;;;;;;;;;;14.64;56.73;95836.81;5046588;28;20061;-64
2022/03/29 07:45:26;;;;;;;19.73;12.63;;;;;;;14.37;59.06;95838.25;5047582;28;19964;-65
2022/03/29 07:47:56;;;;;;;23.17;12.43;;;;;;;14.74;58.35;95840.00;5043255;28;20084;-65
2022/03/29 07:50:46;;;;;;;22.10;12.27;;;;;;;14.05;54.53;95829.66;5040811;28;20429;-63
2022/03/29 07:53:14;;;;;;;25.05;12.43;;;;;;;14.58;51.51;95832.22;5044976;28;20075;-64
2022/03/29 07:55:43;;;;;;;22.98;11.75;;;;;;;14.71;48.60;95829.75;5042763;28;20061;-63
2022/03/29 07:58:19;;;;;;;22.80;12.55;;;;;;;14.87;48.18;95839.34;5044708;28;20061;-65
2022/03/29 08:01:07;;;;;;;24.67;13.05;;;;;;;14.98;47.32;95835.38;5043327;28;20059;-62
2022/03/29 08:03:36;;;;;;;25.42;13.60;;;;;;;15.23;45.49;95831.34;5046142;28;20075;-65
2022/03/29 08:06:06;;;;;;;24.85;12.88;;;;;;;15.46;44.88;95833.81;5045554;28;20080;-65
2022/03/29 08:08:34;;;;;;;29.77;13.33;;;;;;;15.61;44.03;95831.91;5047544;28;20077;-64
2022/03/29 08:11:04;;;;;;;23.00;12.45;;;;;;;15.28;44.39;95831.63;5045777;28;20498;-63
2022/03/29 08:13:33;;;;;;;27.02;11.73;;;;;;;15.32;44.83;95829.41;5048034;28;20065;-62
2022/03/29 08:16:02;;;;;;;23.15;13.23;;;;;;;15.52;43.97;95819.78;5049514;28;20079;-63
2022/03/29 08:18:31;;;;;;;22.88;13.43;;;;;;;15.33;43.21;95818.56;5047009;28;20061;-64
2022/03/29 08:20:59;;;;;;;24.45;13.60;;;;;;;15.83;43.69;95814.13;5046067;28;20080;-63
2022/03/29 08:23:30;;;;;;;29.20;13.05;;;;;;;15.92;43.58;95824.63;5043906;28;20076;-64
2022/03/29 08:25:58;;;;;;;22.17;12.20;;;;;;;15.89;42.81;95813.34;5047292;28;20541;-63
2022/03/29 08:28:26;;;;;;;23.95;12.82;;;;;;;16.65;41.65;95814.38;5044778;28;20061;-64
2022/03/29 08:30:55;;;;;;;25.75;12.60;;;;;;;16.18;41.74;95808.84;5045408;28;20068;-63
2022/03/29 08:33:23;;;;;;;21.63;12.45;;;;;;;16.13;41.12;95803.28;5044824;28;20072;-64
2022/03/29 08:35:51;;;;;;;24.70;12.32;;;;;;;15.95;41.68;95802.97;5044133;28;20083;-64
2022/03/29 08:38:20;;;;;;;20.38;11.70;;;;;;;16.06;41.42;95803.22;5044780;28;20083;-65
2022/03/29 08:40:57;;;;;;;20.70;12.50;;;;;;;16.21;41.14;95796.97;5046553;28;20068;-63
2022/03/29 08:43:27;;;;;;;20.38;12.63;;;;;;;16.41;41.43;95802.41;5044548;28;20056;-66
2022/03/29 08:45:56;;;;;;;21.10;13.02;;;;;;;16.53;41.59;95801.66;5045148;28;20475;-65
2022/03/29 08:48:26;;;;;;;21.83;12.50;;;;;;;16.42;41.56;95799.56;5045647;28;20069;-66
2022/03/29 08:50:57;;;;;;;21.73;11.45;;;;;;;16.38;40.92;95803.63;5045392;28;20076;-66
2022/03/29 08:53:48;;;;;;;22.30;11.32;;;;;;;16.54;41.68;95805.94;5046215;28;20484;-64
2022/03/29 08:56:19;;;;;;;19.48;12.07;;;;;;;16.73;40.47;95803.59;5045694;28;20068;-65
2022/03/29 08:58:48;;;;;;;19.80;11.35;;;;;;;16.63;40.34;95813.78;5042999;28;20578;-65
2022/03/29 09:01:19;;;;;;;20.85;12.48;;;;;;;16.99;39.77;95816.19;5043572;28;20829;-65
2022/03/29 09:04:06;;;;;;;21.15;12.27;;;;;;;17.19;39.89;95805.59;5044029;28;20404;-64
2022/03/29 09:06:55;;;;;;;19.60;12.32;;;;;;;17.68;38.86;95799.88;5045720;28;20057;-64
2022/03/29 09:09:26;;;;;;;25.87;13.70;;;;;;;17.09;38.62;95790.00;5043216;28;20049;-65
2022/03/29 09:11:57;;;;;;;19.77;13.38;;;;;;;17.24;39.31;95787.13;5046310;28;20077;-66
2022/03/29 09:14:28;;;;;;;23.63;12.38;;;;;;;17.26;39.01;95783.25;5045900;28;20057;-66
2022/03/29 09:16:56;;;;;;;21.20;11.00;;;;;;;17.26;38.89;95788.59;5044896;28;20060;-65
2022/03/29 09:19:25;;;;;;;23.58;12.57;;;;;;;17.05;38.60;95789.56;5044363;28;20065;-65
2022/03/29 09:21:55;;;;;;;22.50;12.82;;;;;;;17.68;38.12;95783.88;5041446;28;20061;-65
2022/03/29 09:24:24;;;;;;;22.60;13.43;;;;;;;17.63;38.22;95783.69;5044548;28;20061;-67
2022/03/29 09:26:54;;;;;;;22.67;12.48;;;;;;;18.00;37.90;95779.59;5040149;28;20067;-65
2022/03/29 09:29:25;;;;;;;20.27;13.23;;;;;;;18.46;37.25;95772.50;5043478;28;20072;-65
2022/03/29 09:32:03;;;;;;;23.75;14.65;;;;;;;19.12;36.70;95766.06;5060886;28;20063;-65
2022/03/29 09:34:32;;;;;;;21.45;12.57;;;;;;;18.82;36.41;95771.16;5044802;28;20068;-65
2022/03/29 09:37:03;;;;;;;20.75;13.85;;;;;;;18.72;36.52;95769.78;5045472;28;20522;-64
2022/03/29 09:39:37;;;;;;;23.77;14.25;;;;;;;18.90;35.89;95766.38;5044707;28;20072;-65
2022/03/29 09:42:10;;;;;;;26.70;13.80;;;;;;;19.04;36.47;95753.78;5041961;28;20077;-65
2022/03/29 09:44:42;;;;;;;19.33;11.85;;;;;;;19.07;36.46;95749.84;5045839;28;20077;-65
2022/03/29 09:47:13;;;;;;;22.85;14.32;;;;;;;19.27;36.02;95753.22;5044989;28;20557;-65
2022/03/29 09:49:52;;;;;;;;;;;;;;;19.26;35.68;95743.53;5046017;28;20275;-64
2022/03/29 09:52:23;;;;;;;26.75;12.55;;;;;;;19.38;35.55;95741.00;5040923;28;20569;-66
2022/03/29 09:55:07;;;;;;;23.20;13.18;;;;;;;19.38;35.38;95744.50;5044627;28;20103;-65
2022/03/29 09:57:36;;;;;;;21.33;13.38;;;;;;;19.66;34.64;95729.91;5044118;28;20804;-66
2022/03/29 10:00:09;;;;;;;23.63;13.48;;;;;;;19.57;35.06;95726.63;5041149;28;20076;-63
2022/03/29 10:02:40;;;;;;;20.75;12.32;;;;;;;19.23;35.25;95727.94;5045037;28;20053;-64
2022/03/29 10:05:11;;;;;;;24.38;14.45;;;;;;;19.64;35.26;95726.63;5045220;28;20069;-64
2022/03/29 10:07:43;;;;;;;28.42;14.00;;;;;;;19.91;34.99;95716.50;5044776;28;20068;-63
2022/03/29 10:10:12;;;;;;;21.27;12.38;;;;;;;19.72;33.74;95714.81;5044404;28;20061;-63
2022/03/29 10:12:41;;;;;;;21.00;12.65;;;;;;;19.59;34.20;95708.53;5045271;28;20068;-64
2022/03/29 10:15:30;;;;;;;23.05;13.70;;;;;;;19.61;33.91;95708.28;5044622;28;20060;-65
2022/03/29 10:17:59;;;;;;;23.43;12.53;;;;;;;19.87;34.32;95702.72;5044160;28;20080;-63
2022/03/29 10:20:28;;;;;;;18.20;12.35;;;;;;;20.23;33.69;95705.63;5045312;28;20514;-65
2022/03/29 10:22:57;;;;;;;19.15;12.13;;;;;;;19.94;33.01;95702.66;5044994;28;20060;-65
2022/03/29 10:25:27;;;;;;;24.17;13.35;;;;;;;20.09;32.91;95695.06;5043672;28;20072;-65
2022/03/29 10:27:56;;;;;;;21.45;12.60;;;;;;;19.91;33.13;95695.91;5044145;28;20064;-64
2022/03/29 10:30:36;;;;;;;19.08;11.73;;;;;;;19.31;33.67;95689.44;5042877;28;20076;-65
2022/03/29 10:33:18;;;;;;;21.23;11.80;;;;;;;19.45;33.55;95699.00;5046495;28;20085;-64
2022/03/29 10:36:05;;;;;;;21.70;12.93;;;;;;;19.66;33.19;95695.13;5045476;28;20091;-64
2022/03/29 10:38:58;;;;;;;17.20;11.43;;;;;;;19.51;33.66;95691.94;5043469;28;20271;-64
2022/03/29 10:41:49;;;;;;;21.08;13.00;;;;;;;19.81;33.56;95679.53;5042841;28;20468;-64
2022/03/29 10:44:17;;;;;;;;;;;;;;;19.84;33.33;95687.13;5044110;28;20065;-63
2022/03/29 10:46:48;;;;;;;17.60;11.55;;;;;;;19.59;33.40;95686.31;5043836;28;19960;-64
2022/03/29 10:49:21;;;;;;;19.65;11.40;;;;;;;19.76;33.15;95682.06;5042831;28;20068;-65
2022/03/29 10:51:51;;;;;;;21.85;12.48;;;;;;;19.71;33.40;95678.41;5045845;28;20061;-63
2022/03/29 10:54:30;;;;;;;20.77;13.55;;;;;;;20.11;33.28;95674.28;5047739;28;20075;-65
2022/03/29 10:57:00;;;;;;;19.95;13.85;;;;;;;20.17;33.56;95682.47;5045539;28;20076;-64
2022/03/29 10:59:29;;;;;;;24.42;13.68;;;;;;;20.08;33.28;95680.06;5045104;28;20076;-66
2022/03/29 11:02:18;;;;;;;23.20;13.73;;;;;;;20.07;33.30;95670.41;5048944;28;20091;-66
2022/03/29 11:05:06;;;;;;;25.60;13.30;;;;;;;20.37;33.12;95677.66;5048549;28;20056;-65
2022/03/29 11:07:35;;;;;;;21.48;12.48;;;;;;;20.22;33.40;95674.56;5047775;28;20707;-64
2022/03/29 11:10:10;;;;;;;18.67;11.98;;;;;;;20.37;32.66;95678.50;5048323;28;20067;-65
2022/03/29 11:12:44;;;;;;;21.58;11.50;;;;;;;19.87;32.89;95662.59;5048275;28;20076;-64
2022/03/29 11:15:46;;;;;;;18.58;10.43;;;;;;;20.00;32.97;95664.31;5047262;28;20093;-65
2022/03/29 11:18:46;;;;;;;17.98;12.00;;;;;;;19.79;32.90;95660.22;5045820;28;20456;-66
2022/03/29 11:21:44;;;;;;;19.75;12.38;;;;;;;20.27;33.07;95661.34;4983815;28;20501;-66
2022/03/29 11:24:15;;;;;;;17.60;11.65;;;;;;;19.82;33.06;95669.66;5044349;28;20080;-66
2022/03/29 11:26:59;;;;;;;20.67;11.00;;;;;;;19.82;33.17;95658.94;5048707;28;20538;-64
2022/03/29 11:29:27;;;;;;;17.83;11.73;;;;;;;20.22;32.41;95656.63;5046198;28;21538;-64
2022/03/29 11:31:56;;;;;;;20.10;12.13;;;;;;;20.44;32.54;95640.94;5045334;28;20069;-64
2022/03/29 11:34:37;;;;;;;19.77;12.82;;;;;;;20.64;32.26;95646.03;5045746;28;20531;-65
2022/03/29 11:37:06;;;;;;;19.95;11.93;;;;;;;20.45;32.10;95623.81;5046439;28;20067;-65
2022/03/29 11:39:34;;;;;;;20.65;11.55;;;;;;;20.17;31.32;95637.78;5046067;28;20065;-64
2022/03/29 11:42:02;;;;;;;18.25;10.48;;;;;;;19.83;31.19;95623.16;5047018;28;20080;-64
2022/03/29 11:44:31;;;;;;;16.25;9.98;;;;;;;20.23;30.76;95631.50;5047182;28;20088;-64
2022/03/29 11:46:59;;;;;;;16.30;10.48;;;;;;;19.96;31.23;95638.22;5047561;28;20064;-63